sensor_id;sensor_type;location;lat;lon;timestamp;P1;durP1;ratioP1;P2;durP2;ratioP2
29358;SDS011;16347;53.232;6.556;2023-05-10T00:00:14;13.65;;;9.55;;
29358;SDS011;16347;53.232;6.556;2023-05-10T00:02:42;11.90;;;9.50;;
29358;SDS011;16347;53.232;6.556;2023-05-10T00:05:11;11.88;;;9.77;;
29358;SDS011;16347;53.232;6.556;2023-05-10T00:07:39;11.55;;;9.77;;
29358;SDS011;16347;53.232;6.556;2023-05-10T00:10:07;11.98;;;9.63;;
29358;SDS011;16347;53.232;6.556;2023-05-10T00:12:37;11.30;;;9.23;;
29358;SDS011;16347;53.232;6.556;2023-05-10T00:15:05;9.82;;;8.50;;
29358;SDS011;16347;53.232;6.556;2023-05-10T00:17:34;10.20;;;8.55;;
29358;SDS011;16347;53.232;6.556;2023-05-10T00:20:02;11.63;;;8.70;;
29358;SDS011;16347;53.232;6.556;2023-05-10T00:22:31;10.45;;;8.38;;
29358;SDS011;16347;53.232;6.556;2023-05-10T00:24:59;9.23;;;7.90;;
29358;SDS011;16347;53.232;6.556;2023-05-10T00:27:27;9.80;;;8.18;;
29358;SDS011;16347;53.232;6.556;2023-05-10T00:29:56;9.48;;;7.00;;
29358;SDS011;16347;53.232;6.556;2023-05-10T00:32:24;12.35;;;8.40;;
29358;SDS011;16347;53.232;6.556;2023-05-10T00:34:52;10.20;;;7.95;;
29358;SDS011;16347;53.232;6.556;2023-05-10T00:37:20;9.77;;;6.68;;
29358;SDS011;16347;53.232;6.556;2023-05-10T00:39:48;8.40;;;6.45;;
29358;SDS011;16347;53.232;6.556;2023-05-10T00:42:16;9.05;;;6.80;;
29358;SDS011;16347;53.232;6.556;2023-05-10T00:44:44;9.13;;;7.05;;
29358;SDS011;16347;53.232;6.556;2023-05-10T00:47:15;10.85;;;7.70;;
29358;SDS011;16347;53.232;6.556;2023-05-10T00:49:43;9.05;;;7.10;;
29358;SDS011;16347;53.232;6.556;2023-05-10T00:52:13;8.45;;;6.45;;
29358;SDS011;16347;53.232;6.556;2023-05-10T00:54:40;9.93;;;7.43;;
29358;SDS011;16347;53.232;6.556;2023-05-10T00:57:09;9.38;;;7.30;;
29358;SDS011;16347;53.232;6.556;2023-05-10T00:59:37;9.70;;;7.13;;
29358;SDS011;16347;53.232;6.556;2023-05-10T01:02:05;9.32;;;7.40;;
29358;SDS011;16347;53.232;6.556;2023-05-10T01:04:35;8.15;;;7.28;;
29358;SDS011;16347;53.232;6.556;2023-05-10T01:07:05;12.30;;;6.85;;
29358;SDS011;16347;53.232;6.556;2023-05-10T01:09:33;9.27;;;6.70;;
29358;SDS011;16347;53.232;6.556;2023-05-10T01:12:01;10.70;;;7.10;;
29358;SDS011;16347;53.232;6.556;2023-05-10T01:14:30;7.97;;;6.90;;
29358;SDS011;16347;53.232;6.556;2023-05-10T01:16:59;10.15;;;7.15;;
29358;SDS011;16347;53.232;6.556;2023-05-10T01:19:28;9.35;;;7.05;;
29358;SDS011;16347;53.232;6.556;2023-05-10T01:22:06;10.25;;;8.00;;
29358;SDS011;16347;53.232;6.556;2023-05-10T01:24:54;9.73;;;7.43;;
29358;SDS011;16347;53.232;6.556;2023-05-10T01:27:47;11.10;;;8.25;;
29358;SDS011;16347;53.232;6.556;2023-05-10T01:30:35;10.25;;;7.88;;
29358;SDS011;16347;53.232;6.556;2023-05-10T01:33:34;10.32;;;8.43;;
29358;SDS011;16347;53.232;6.556;2023-05-10T01:36:08;9.43;;;7.72;;
29358;SDS011;16347;53.232;6.556;2023-05-10T01:38:44;12.10;;;8.40;;
29358;SDS011;16347;53.232;6.556;2023-05-10T01:41:18;9.45;;;7.50;;
29358;SDS011;16347;53.232;6.556;2023-05-10T01:43:53;9.45;;;7.18;;
29358;SDS011;16347;53.232;6.556;2023-05-10T01:48:57;10.73;;;7.40;;
29358;SDS011;16347;53.232;6.556;2023-05-10T01:51:29;8.23;;;6.82;;
29358;SDS011;16347;53.232;6.556;2023-05-10T01:54:06;14.43;;;7.85;;
29358;SDS011;16347;53.232;6.556;2023-05-10T01:56:37;10.85;;;7.82;;
29358;SDS011;16347;53.232;6.556;2023-05-10T01:59:09;10.88;;;7.88;;
29358;SDS011;16347;53.232;6.556;2023-05-10T02:01:40;9.85;;;8.15;;
29358;SDS011;16347;53.232;6.556;2023-05-10T02:04:11;10.63;;;7.90;;
29358;SDS011;16347;53.232;6.556;2023-05-10T02:06:44;10.05;;;7.45;;
29358;SDS011;16347;53.232;6.556;2023-05-10T02:09:14;10.30;;;7.88;;
29358;SDS011;16347;53.232;6.556;2023-05-10T02:11:45;8.85;;;7.40;;
29358;SDS011;16347;53.232;6.556;2023-05-10T02:14:15;9.15;;;7.88;;
29358;SDS011;16347;53.232;6.556;2023-05-10T02:16:45;8.43;;;7.13;;
29358;SDS011;16347;53.232;6.556;2023-05-10T02:19:16;7.70;;;6.90;;
29358;SDS011;16347;53.232;6.556;2023-05-10T02:21:46;10.98;;;7.63;;
29358;SDS011;16347;53.232;6.556;2023-05-10T02:24:14;8.27;;;6.93;;
29358;SDS011;16347;53.232;6.556;2023-05-10T02:26:43;7.60;;;6.75;;
29358;SDS011;16347;53.232;6.556;2023-05-10T02:29:13;9.95;;;7.03;;
29358;SDS011;16347;53.232;6.556;2023-05-10T02:31:43;8.57;;;7.07;;
29358;SDS011;16347;53.232;6.556;2023-05-10T02:34:12;8.73;;;6.30;;
29358;SDS011;16347;53.232;6.556;2023-05-10T02:36:42;9.32;;;7.28;;
29358;SDS011;16347;53.232;6.556;2023-05-10T02:39:10;7.82;;;6.55;;
29358;SDS011;16347;53.232;6.556;2023-05-10T02:41:40;10.32;;;7.45;;
29358;SDS011;16347;53.232;6.556;2023-05-10T02:44:09;10.98;;;8.27;;
29358;SDS011;16347;53.232;6.556;2023-05-10T02:46:39;10.75;;;8.10;;
29358;SDS011;16347;53.232;6.556;2023-05-10T02:49:06;10.80;;;8.00;;
29358;SDS011;16347;53.232;6.556;2023-05-10T02:51:35;13.52;;;8.93;;
29358;SDS011;16347;53.232;6.556;2023-05-10T02:54:10;12.18;;;8.65;;
29358;SDS011;16347;53.232;6.556;2023-05-10T02:56:45;11.93;;;8.70;;
29358;SDS011;16347;53.232;6.556;2023-05-10T02:59:15;16.03;;;10.30;;
29358;SDS011;16347;53.232;6.556;2023-05-10T03:01:43;13.20;;;9.27;;
29358;SDS011;16347;53.232;6.556;2023-05-10T03:04:11;11.93;;;9.23;;
29358;SDS011;16347;53.232;6.556;2023-05-10T03:06:39;14.13;;;9.48;;
29358;SDS011;16347;53.232;6.556;2023-05-10T03:09:07;13.65;;;9.48;;
29358;SDS011;16347;53.232;6.556;2023-05-10T03:11:43;16.48;;;10.10;;
29358;SDS011;16347;53.232;6.556;2023-05-10T03:14:28;20.42;;;11.30;;
29358;SDS011;16347;53.232;6.556;2023-05-10T03:17:10;15.73;;;10.18;;
29358;SDS011;16347;53.232;6.556;2023-05-10T03:19:53;15.68;;;10.55;;
29358;SDS011;16347;53.232;6.556;2023-05-10T03:22:24;18.90;;;11.55;;
29358;SDS011;16347;53.232;6.556;2023-05-10T03:24:57;17.13;;;12.07;;
29358;SDS011;16347;53.232;6.556;2023-05-10T03:27:29;18.00;;;12.73;;
29358;SDS011;16347;53.232;6.556;2023-05-10T03:29:58;18.17;;;12.20;;
29358;SDS011;16347;53.232;6.556;2023-05-10T03:32:47;19.02;;;12.68;;
29358;SDS011;16347;53.232;6.556;2023-05-10T03:35:16;16.67;;;11.90;;
29358;SDS011;16347;53.232;6.556;2023-05-10T03:37:44;16.45;;;11.35;;
29358;SDS011;16347;53.232;6.556;2023-05-10T03:40:14;21.05;;;13.70;;
29358;SDS011;16347;53.232;6.556;2023-05-10T03:42:43;17.05;;;11.70;;
29358;SDS011;16347;53.232;6.556;2023-05-10T03:45:11;18.50;;;12.88;;
29358;SDS011;16347;53.232;6.556;2023-05-10T03:47:39;21.35;;;13.20;;
29358;SDS011;16347;53.232;6.556;2023-05-10T03:50:08;21.40;;;13.38;;
29358;SDS011;16347;53.232;6.556;2023-05-10T03:52:37;22.23;;;13.77;;
29358;SDS011;16347;53.232;6.556;2023-05-10T03:57:55;24.92;;;13.88;;
29358;SDS011;16347;53.232;6.556;2023-05-10T04:00:24;17.67;;;10.50;;
29358;SDS011;16347;53.232;6.556;2023-05-10T04:02:54;18.38;;;10.23;;
29358;SDS011;16347;53.232;6.556;2023-05-10T04:05:23;15.98;;;9.65;;
29358;SDS011;16347;53.232;6.556;2023-05-10T04:07:51;14.88;;;9.35;;
29358;SDS011;16347;53.232;6.556;2023-05-10T04:10:19;14.32;;;9.07;;
29358;SDS011;16347;53.232;6.556;2023-05-10T04:12:49;12.73;;;7.63;;
29358;SDS011;16347;53.232;6.556;2023-05-10T04:15:17;8.55;;;7.07;;
29358;SDS011;16347;53.232;6.556;2023-05-10T04:17:45;11.80;;;7.32;;
29358;SDS011;16347;53.232;6.556;2023-05-10T04:20:13;8.88;;;6.15;;
29358;SDS011;16347;53.232;6.556;2023-05-10T04:22:42;7.65;;;5.43;;
29358;SDS011;16347;53.232;6.556;2023-05-10T04:25:10;7.93;;;5.55;;
29358;SDS011;16347;53.232;6.556;2023-05-10T04:27:38;5.90;;;4.95;;
29358;SDS011;16347;53.232;6.556;2023-05-10T04:30:08;7.78;;;4.78;;
29358;SDS011;16347;53.232;6.556;2023-05-10T04:32:37;11.65;;;5.28;;
29358;SDS011;16347;53.232;6.556;2023-05-10T04:35:05;8.73;;;4.97;;
29358;SDS011;16347;53.232;6.556;2023-05-10T04:37:33;4.72;;;4.10;;
29358;SDS011;16347;53.232;6.556;2023-05-10T04:40:01;5.60;;;4.05;;
29358;SDS011;16347;53.232;6.556;2023-05-10T04:42:29;5.05;;;4.55;;
29358;SDS011;16347;53.232;6.556;2023-05-10T04:44:57;5.93;;;4.20;;
29358;SDS011;16347;53.232;6.556;2023-05-10T04:47:26;6.40;;;4.07;;
29358;SDS011;16347;53.232;6.556;2023-05-10T04:49:54;6.82;;;4.22;;
29358;SDS011;16347;53.232;6.556;2023-05-10T04:52:22;6.57;;;4.53;;
29358;SDS011;16347;53.232;6.556;2023-05-10T04:54:50;8.75;;;3.97;;
29358;SDS011;16347;53.232;6.556;2023-05-10T04:57:18;7.65;;;5.10;;
29358;SDS011;16347;53.232;6.556;2023-05-10T04:59:46;5.25;;;4.30;;
29358;SDS011;16347;53.232;6.556;2023-05-10T05:02:15;9.45;;;4.30;;
29358;SDS011;16347;53.232;6.556;2023-05-10T05:04:44;6.47;;;4.28;;
29358;SDS011;16347;53.232;6.556;2023-05-10T05:07:12;5.47;;;4.53;;
29358;SDS011;16347;53.232;6.556;2023-05-10T05:09:41;5.65;;;4.43;;
29358;SDS011;16347;53.232;6.556;2023-05-10T05:12:09;5.60;;;3.97;;
29358;SDS011;16347;53.232;6.556;2023-05-10T05:14:40;7.25;;;4.93;;
29358;SDS011;16347;53.232;6.556;2023-05-10T05:17:08;3.90;;;3.53;;
29358;SDS011;16347;53.232;6.556;2023-05-10T05:19:36;5.85;;;4.38;;
29358;SDS011;16347;53.232;6.556;2023-05-10T05:22:06;6.95;;;4.55;;
29358;SDS011;16347;53.232;6.556;2023-05-10T05:24:37;8.68;;;5.28;;
29358;SDS011;16347;53.232;6.556;2023-05-10T05:27:05;5.93;;;4.63;;
29358;SDS011;16347;53.232;6.556;2023-05-10T05:29:33;6.40;;;4.53;;
29358;SDS011;16347;53.232;6.556;2023-05-10T05:32:01;7.38;;;4.95;;
29358;SDS011;16347;53.232;6.556;2023-05-10T05:34:30;5.10;;;4.60;;
29358;SDS011;16347;53.232;6.556;2023-05-10T05:36:57;6.38;;;5.00;;
29358;SDS011;16347;53.232;6.556;2023-05-10T05:39:27;5.68;;;4.43;;
29358;SDS011;16347;53.232;6.556;2023-05-10T05:41:55;6.93;;;4.28;;
29358;SDS011;16347;53.232;6.556;2023-05-10T05:44:23;5.90;;;4.60;;
29358;SDS011;16347;53.232;6.556;2023-05-10T05:46:51;5.95;;;4.57;;
29358;SDS011;16347;53.232;6.556;2023-05-10T05:49:19;7.35;;;4.78;;
29358;SDS011;16347;53.232;6.556;2023-05-10T05:51:47;8.57;;;4.38;;
29358;SDS011;16347;53.232;6.556;2023-05-10T05:54:15;4.15;;;3.40;;
29358;SDS011;16347;53.232;6.556;2023-05-10T05:56:45;4.65;;;3.30;;
29358;SDS011;16347;53.232;6.556;2023-05-10T05:59:13;4.45;;;3.30;;
29358;SDS011;16347;53.232;6.556;2023-05-10T06:01:41;4.10;;;3.00;;
29358;SDS011;16347;53.232;6.556;2023-05-10T06:04:10;4.18;;;2.88;;
29358;SDS011;16347;53.232;6.556;2023-05-10T06:06:38;4.18;;;3.40;;
29358;SDS011;16347;53.232;6.556;2023-05-10T06:09:06;2.55;;;2.20;;
29358;SDS011;16347;53.232;6.556;2023-05-10T06:11:34;3.05;;;1.70;;
29358;SDS011;16347;53.232;6.556;2023-05-10T06:14:04;1.80;;;1.60;;
29358;SDS011;16347;53.232;6.556;2023-05-10T06:16:35;1.77;;;1.25;;
29358;SDS011;16347;53.232;6.556;2023-05-10T06:19:03;1.10;;;1.10;;
29358;SDS011;16347;53.232;6.556;2023-05-10T06:21:31;1.50;;;1.15;;
29358;SDS011;16347;53.232;6.556;2023-05-10T06:23:59;11.05;;;5.75;;
29358;SDS011;16347;53.232;6.556;2023-05-10T06:26:27;1.40;;;1.30;;
29358;SDS011;16347;53.232;6.556;2023-05-10T06:28:55;1.70;;;1.40;;
29358;SDS011;16347;53.232;6.556;2023-05-10T06:31:24;4.82;;;2.53;;
29358;SDS011;16347;53.232;6.556;2023-05-10T06:33:53;3.30;;;2.70;;
29358;SDS011;16347;53.232;6.556;2023-05-10T06:36:22;6.28;;;5.10;;
29358;SDS011;16347;53.232;6.556;2023-05-10T06:38:51;6.93;;;5.65;;
29358;SDS011;16347;53.232;6.556;2023-05-10T06:41:19;11.85;;;7.38;;
29358;SDS011;16347;53.232;6.556;2023-05-10T06:43:50;9.70;;;6.80;;
29358;SDS011;16347;53.232;6.556;2023-05-10T06:46:17;11.43;;;6.57;;
29358;SDS011;16347;53.232;6.556;2023-05-10T06:48:47;11.13;;;6.85;;
29358;SDS011;16347;53.232;6.556;2023-05-10T06:51:15;9.77;;;7.75;;
29358;SDS011;16347;53.232;6.556;2023-05-10T06:53:43;10.65;;;8.30;;
29358;SDS011;16347;53.232;6.556;2023-05-10T06:56:11;11.18;;;8.55;;
29358;SDS011;16347;53.232;6.556;2023-05-10T06:58:39;12.68;;;9.32;;
29358;SDS011;16347;53.232;6.556;2023-05-10T07:01:07;11.48;;;9.00;;
29358;SDS011;16347;53.232;6.556;2023-05-10T07:03:35;15.43;;;9.25;;
29358;SDS011;16347;53.232;6.556;2023-05-10T07:06:04;12.13;;;9.82;;
29358;SDS011;16347;53.232;6.556;2023-05-10T07:08:43;12.63;;;8.98;;
29358;SDS011;16347;53.232;6.556;2023-05-10T07:11:11;11.13;;;7.95;;
29358;SDS011;16347;53.232;6.556;2023-05-10T07:13:40;7.80;;;5.80;;
29358;SDS011;16347;53.232;6.556;2023-05-10T07:16:10;9.30;;;7.10;;
29358;SDS011;16347;53.232;6.556;2023-05-10T07:18:38;10.15;;;6.53;;
29358;SDS011;16347;53.232;6.556;2023-05-10T07:21:07;8.00;;;5.90;;
29358;SDS011;16347;53.232;6.556;2023-05-10T07:23:35;7.80;;;5.38;;
29358;SDS011;16347;53.232;6.556;2023-05-10T07:26:03;5.20;;;4.13;;
29358;SDS011;16347;53.232;6.556;2023-05-10T07:28:31;5.07;;;4.05;;
29358;SDS011;16347;53.232;6.556;2023-05-10T07:30:59;4.72;;;3.42;;
29358;SDS011;16347;53.232;6.556;2023-05-10T07:33:27;3.90;;;3.05;;
29358;SDS011;16347;53.232;6.556;2023-05-10T07:35:55;3.90;;;3.35;;
29358;SDS011;16347;53.232;6.556;2023-05-10T07:38:24;3.83;;;3.10;;
29358;SDS011;16347;53.232;6.556;2023-05-10T07:40:52;3.47;;;2.63;;
29358;SDS011;16347;53.232;6.556;2023-05-10T07:43:21;3.00;;;2.70;;
29358;SDS011;16347;53.232;6.556;2023-05-10T07:45:48;2.45;;;2.20;;
29358;SDS011;16347;53.232;6.556;2023-05-10T07:48:20;3.15;;;2.15;;
29358;SDS011;16347;53.232;6.556;2023-05-10T07:50:48;1.42;;;1.33;;
29358;SDS011;16347;53.232;6.556;2023-05-10T07:53:16;1.83;;;1.70;;
29358;SDS011;16347;53.232;6.556;2023-05-10T07:55:46;1.90;;;1.70;;
29358;SDS011;16347;53.232;6.556;2023-05-10T07:58:18;3.70;;;2.10;;
29358;SDS011;16347;53.232;6.556;2023-05-10T08:00:45;3.22;;;2.25;;
29358;SDS011;16347;53.232;6.556;2023-05-10T08:03:14;5.38;;;2.47;;
29358;SDS011;16347;53.232;6.556;2023-05-10T08:05:43;2.95;;;2.25;;
29358;SDS011;16347;53.232;6.556;2023-05-10T08:08:11;3.20;;;2.35;;
29358;SDS011;16347;53.232;6.556;2023-05-10T08:10:39;4.13;;;2.92;;
29358;SDS011;16347;53.232;6.556;2023-05-10T08:13:08;3.40;;;3.03;;
29358;SDS011;16347;53.232;6.556;2023-05-10T08:15:36;4.32;;;3.00;;
29358;SDS011;16347;53.232;6.556;2023-05-10T08:18:04;3.42;;;2.97;;
29358;SDS011;16347;53.232;6.556;2023-05-10T08:20:32;4.45;;;3.28;;
29358;SDS011;16347;53.232;6.556;2023-05-10T08:23:00;4.45;;;3.40;;
29358;SDS011;16347;53.232;6.556;2023-05-10T08:25:28;4.25;;;3.17;;
29358;SDS011;16347;53.232;6.556;2023-05-10T08:27:56;4.78;;;3.45;;
29358;SDS011;16347;53.232;6.556;2023-05-10T08:30:25;11.50;;;4.47;;
29358;SDS011;16347;53.232;6.556;2023-05-10T08:32:54;6.93;;;4.90;;
29358;SDS011;16347;53.232;6.556;2023-05-10T08:35:22;5.57;;;4.20;;
29358;SDS011;16347;53.232;6.556;2023-05-10T08:37:50;6.80;;;4.63;;
29358;SDS011;16347;53.232;6.556;2023-05-10T08:40:19;5.90;;;5.00;;
29358;SDS011;16347;53.232;6.556;2023-05-10T08:42:48;6.63;;;4.80;;
29358;SDS011;16347;53.232;6.556;2023-05-10T08:45:23;6.35;;;4.10;;
29358;SDS011;16347;53.232;6.556;2023-05-10T08:47:53;4.30;;;3.47;;
29358;SDS011;16347;53.232;6.556;2023-05-10T08:50:22;4.72;;;3.25;;
29358;SDS011;16347;53.232;6.556;2023-05-10T08:52:51;3.58;;;2.95;;
29358;SDS011;16347;53.232;6.556;2023-05-10T08:55:23;4.93;;;2.83;;
29358;SDS011;16347;53.232;6.556;2023-05-10T08:57:51;4.55;;;3.40;;
29358;SDS011;16347;53.232;6.556;2023-05-10T09:00:19;7.07;;;3.20;;
29358;SDS011;16347;53.232;6.556;2023-05-10T09:02:49;4.07;;;3.17;;
29358;SDS011;16347;53.232;6.556;2023-05-10T09:05:19;10.27;;;3.60;;
29358;SDS011;16347;53.232;6.556;2023-05-10T09:07:47;9.55;;;3.42;;
29358;SDS011;16347;53.232;6.556;2023-05-10T09:10:15;5.50;;;3.65;;
29358;SDS011;16347;53.232;6.556;2023-05-10T09:12:43;5.13;;;3.70;;
29358;SDS011;16347;53.232;6.556;2023-05-10T09:15:13;8.90;;;4.70;;
29358;SDS011;16347;53.232;6.556;2023-05-10T09:17:43;10.65;;;4.70;;
29358;SDS011;16347;53.232;6.556;2023-05-10T09:20:12;6.07;;;4.13;;
29358;SDS011;16347;53.232;6.556;2023-05-10T09:22:41;4.88;;;4.07;;
29358;SDS011;16347;53.232;6.556;2023-05-10T09:25:09;6.43;;;4.30;;
29358;SDS011;16347;53.232;6.556;2023-05-10T09:27:40;6.32;;;4.38;;
29358;SDS011;16347;53.232;6.556;2023-05-10T09:30:14;8.23;;;4.57;;
29358;SDS011;16347;53.232;6.556;2023-05-10T09:32:45;6.43;;;4.25;;
29358;SDS011;16347;53.232;6.556;2023-05-10T09:35:15;8.32;;;5.63;;
29358;SDS011;16347;53.232;6.556;2023-05-10T09:37:47;13.32;;;8.07;;
29358;SDS011;16347;53.232;6.556;2023-05-10T09:40:16;27.20;;;14.55;;
29358;SDS011;16347;53.232;6.556;2023-05-10T09:42:51;7.95;;;5.45;;
29358;SDS011;16347;53.232;6.556;2023-05-10T09:45:20;11.32;;;5.50;;
29358;SDS011;16347;53.232;6.556;2023-05-10T09:47:48;7.25;;;4.97;;
29358;SDS011;16347;53.232;6.556;2023-05-10T09:50:17;10.35;;;6.43;;
29358;SDS011;16347;53.232;6.556;2023-05-10T09:52:48;9.07;;;5.60;;
29358;SDS011;16347;53.232;6.556;2023-05-10T09:55:18;4.43;;;3.50;;
29358;SDS011;16347;53.232;6.556;2023-05-10T09:57:48;5.35;;;3.63;;
29358;SDS011;16347;53.232;6.556;2023-05-10T10:00:17;5.03;;;3.80;;
29358;SDS011;16347;53.232;6.556;2023-05-10T10:02:47;7.75;;;5.32;;
29358;SDS011;16347;53.232;6.556;2023-05-10T10:05:27;6.55;;;3.92;;
29358;SDS011;16347;53.232;6.556;2023-05-10T10:07:58;5.45;;;3.40;;
29358;SDS011;16347;53.232;6.556;2023-05-10T10:10:27;5.07;;;3.65;;
29358;SDS011;16347;53.232;6.556;2023-05-10T10:12:55;8.52;;;4.25;;
29358;SDS011;16347;53.232;6.556;2023-05-10T10:15:23;4.88;;;3.75;;
29358;SDS011;16347;53.232;6.556;2023-05-10T10:17:52;5.05;;;3.50;;
29358;SDS011;16347;53.232;6.556;2023-05-10T10:20:22;6.80;;;3.30;;
29358;SDS011;16347;53.232;6.556;2023-05-10T10:22:52;7.78;;;3.85;;
29358;SDS011;16347;53.232;6.556;2023-05-10T10:25:22;8.50;;;4.55;;
29358;SDS011;16347;53.232;6.556;2023-05-10T10:27:56;7.47;;;4.82;;
29358;SDS011;16347;53.232;6.556;2023-05-10T10:30:37;3.83;;;2.80;;
29358;SDS011;16347;53.232;6.556;2023-05-10T10:35:58;3.42;;;2.88;;
29358;SDS011;16347;53.232;6.556;2023-05-10T10:38:35;3.45;;;2.88;;
29358;SDS011;16347;53.232;6.556;2023-05-10T10:41:09;4.72;;;3.30;;
29358;SDS011;16347;53.232;6.556;2023-05-10T10:43:38;5.10;;;2.97;;
29358;SDS011;16347;53.232;6.556;2023-05-10T10:46:15;4.20;;;3.30;;
29358;SDS011;16347;53.232;6.556;2023-05-10T10:48:47;4.65;;;3.05;;
29358;SDS011;16347;53.232;6.556;2023-05-10T10:51:16;6.15;;;3.58;;
29358;SDS011;16347;53.232;6.556;2023-05-10T10:53:43;5.70;;;3.85;;
29358;SDS011;16347;53.232;6.556;2023-05-10T10:56:13;5.88;;;4.10;;
29358;SDS011;16347;53.232;6.556;2023-05-10T10:58:42;7.18;;;4.72;;
29358;SDS011;16347;53.232;6.556;2023-05-10T11:01:17;8.05;;;5.80;;
29358;SDS011;16347;53.232;6.556;2023-05-10T11:06:45;6.82;;;5.90;;
29358;SDS011;16347;53.232;6.556;2023-05-10T11:09:12;8.43;;;5.72;;
29358;SDS011;16347;53.232;6.556;2023-05-10T11:11:54;8.63;;;6.53;;
29358;SDS011;16347;53.232;6.556;2023-05-10T11:14:22;8.77;;;6.22;;
29358;SDS011;16347;53.232;6.556;2023-05-10T11:16:50;9.65;;;7.22;;
29358;SDS011;16347;53.232;6.556;2023-05-10T11:19:18;12.00;;;7.93;;
29358;SDS011;16347;53.232;6.556;2023-05-10T11:21:48;12.98;;;8.13;;
29358;SDS011;16347;53.232;6.556;2023-05-10T11:24:18;11.10;;;7.68;;
29358;SDS011;16347;53.232;6.556;2023-05-10T11:26:49;16.13;;;8.45;;
29358;SDS011;16347;53.232;6.556;2023-05-10T11:29:20;11.55;;;7.88;;
29358;SDS011;16347;53.232;6.556;2023-05-10T11:31:48;13.43;;;8.43;;
29358;SDS011;16347;53.232;6.556;2023-05-10T11:34:23;12.18;;;7.95;;
29358;SDS011;16347;53.232;6.556;2023-05-10T11:36:52;17.55;;;11.07;;
29358;SDS011;16347;53.232;6.556;2023-05-10T11:39:25;15.65;;;8.65;;
29358;SDS011;16347;53.232;6.556;2023-05-10T11:41:54;12.43;;;8.40;;
29358;SDS011;16347;53.232;6.556;2023-05-10T11:44:24;20.67;;;9.20;;
29358;SDS011;16347;53.232;6.556;2023-05-10T11:46:58;18.88;;;10.18;;
29358;SDS011;16347;53.232;6.556;2023-05-10T11:49:26;16.35;;;9.60;;
29358;SDS011;16347;53.232;6.556;2023-05-10T11:52:03;17.27;;;9.68;;
29358;SDS011;16347;53.232;6.556;2023-05-10T11:54:31;15.43;;;9.18;;
29358;SDS011;16347;53.232;6.556;2023-05-10T11:57:01;15.18;;;9.65;;
29358;SDS011;16347;53.232;6.556;2023-05-10T11:59:30;13.45;;;8.68;;
29358;SDS011;16347;53.232;6.556;2023-05-10T12:01:58;15.68;;;8.98;;
29358;SDS011;16347;53.232;6.556;2023-05-10T12:04:26;14.23;;;9.40;;
29358;SDS011;16347;53.232;6.556;2023-05-10T12:06:56;16.63;;;9.48;;
29358;SDS011;16347;53.232;6.556;2023-05-10T12:09:24;18.65;;;9.02;;
29358;SDS011;16347;53.232;6.556;2023-05-10T12:11:55;14.20;;;9.65;;
29358;SDS011;16347;53.232;6.556;2023-05-10T12:14:24;16.23;;;9.18;;
29358;SDS011;16347;53.232;6.556;2023-05-10T12:16:54;13.93;;;9.10;;
29358;SDS011;16347;53.232;6.556;2023-05-10T12:19:24;19.98;;;10.23;;
29358;SDS011;16347;53.232;6.556;2023-05-10T12:21:53;18.48;;;10.13;;
29358;SDS011;16347;53.232;6.556;2023-05-10T12:24:22;16.15;;;10.05;;
29358;SDS011;16347;53.232;6.556;2023-05-10T12:26:51;19.42;;;11.23;;
29358;SDS011;16347;53.232;6.556;2023-05-10T12:29:31;20.33;;;11.13;;
29358;SDS011;16347;53.232;6.556;2023-05-10T12:32:00;17.33;;;10.68;;
29358;SDS011;16347;53.232;6.556;2023-05-10T12:34:30;21.15;;;11.45;;
29358;SDS011;16347;53.232;6.556;2023-05-10T12:36:59;20.55;;;11.07;;
29358;SDS011;16347;53.232;6.556;2023-05-10T12:39:37;19.88;;;11.32;;
29358;SDS011;16347;53.232;6.556;2023-05-10T12:42:07;18.35;;;11.73;;
29358;SDS011;16347;53.232;6.556;2023-05-10T12:44:35;24.15;;;11.18;;
29358;SDS011;16347;53.232;6.556;2023-05-10T12:47:04;16.20;;;10.05;;
29358;SDS011;16347;53.232;6.556;2023-05-10T12:49:33;14.50;;;9.50;;
29358;SDS011;16347;53.232;6.556;2023-05-10T12:52:01;18.55;;;9.43;;
29358;SDS011;16347;53.232;6.556;2023-05-10T12:54:29;13.80;;;8.35;;
29358;SDS011;16347;53.232;6.556;2023-05-10T12:56:57;15.35;;;9.27;;
29358;SDS011;16347;53.232;6.556;2023-05-10T12:59:25;14.63;;;9.75;;
29358;SDS011;16347;53.232;6.556;2023-05-10T13:01:53;14.15;;;9.35;;
29358;SDS011;16347;53.232;6.556;2023-05-10T13:04:23;12.38;;;8.60;;
29358;SDS011;16347;53.232;6.556;2023-05-10T13:06:51;12.55;;;8.57;;
29358;SDS011;16347;53.232;6.556;2023-05-10T13:09:22;14.35;;;9.30;;
29358;SDS011;16347;53.232;6.556;2023-05-10T13:11:49;15.07;;;8.95;;
29358;SDS011;16347;53.232;6.556;2023-05-10T13:14:19;13.77;;;8.82;;
29358;SDS011;16347;53.232;6.556;2023-05-10T13:16:47;15.30;;;9.25;;
29358;SDS011;16347;53.232;6.556;2023-05-10T13:19:16;14.77;;;8.35;;
29358;SDS011;16347;53.232;6.556;2023-05-10T13:21:46;14.30;;;8.75;;
29358;SDS011;16347;53.232;6.556;2023-05-10T13:24:15;12.55;;;8.20;;
29358;SDS011;16347;53.232;6.556;2023-05-10T13:26:43;14.52;;;8.02;;
29358;SDS011;16347;53.232;6.556;2023-05-10T13:29:11;12.52;;;8.23;;
29358;SDS011;16347;53.232;6.556;2023-05-10T13:31:39;12.00;;;7.97;;
29358;SDS011;16347;53.232;6.556;2023-05-10T13:34:07;10.95;;;8.10;;
29358;SDS011;16347;53.232;6.556;2023-05-10T13:36:35;13.85;;;7.78;;
29358;SDS011;16347;53.232;6.556;2023-05-10T13:39:05;17.02;;;7.90;;
29358;SDS011;16347;53.232;6.556;2023-05-10T13:41:32;12.35;;;8.15;;
29358;SDS011;16347;53.232;6.556;2023-05-10T13:44:00;11.32;;;8.48;;
29358;SDS011;16347;53.232;6.556;2023-05-10T13:46:28;11.65;;;7.07;;
29358;SDS011;16347;53.232;6.556;2023-05-10T13:48:57;10.50;;;7.93;;
29358;SDS011;16347;53.232;6.556;2023-05-10T13:51:24;10.93;;;7.57;;
29358;SDS011;16347;53.232;6.556;2023-05-10T13:53:52;14.88;;;7.70;;
29358;SDS011;16347;53.232;6.556;2023-05-10T13:56:22;10.18;;;7.13;;
29358;SDS011;16347;53.232;6.556;2023-05-10T13:58:50;12.07;;;7.97;;
29358;SDS011;16347;53.232;6.556;2023-05-10T14:01:17;14.15;;;7.50;;
29358;SDS011;16347;53.232;6.556;2023-05-10T14:03:46;15.25;;;8.80;;
29358;SDS011;16347;53.232;6.556;2023-05-10T14:06:14;13.40;;;7.57;;
29358;SDS011;16347;53.232;6.556;2023-05-10T14:08:42;13.52;;;8.10;;
29358;SDS011;16347;53.232;6.556;2023-05-10T14:11:10;12.50;;;8.35;;
29358;SDS011;16347;53.232;6.556;2023-05-10T14:13:39;17.25;;;9.25;;
29358;SDS011;16347;53.232;6.556;2023-05-10T14:16:07;17.75;;;9.75;;
29358;SDS011;16347;53.232;6.556;2023-05-10T14:18:35;15.27;;;9.35;;
29358;SDS011;16347;53.232;6.556;2023-05-10T14:21:03;14.70;;;8.77;;
29358;SDS011;16347;53.232;6.556;2023-05-10T14:23:31;18.75;;;9.35;;
29358;SDS011;16347;53.232;6.556;2023-05-10T14:25:59;16.20;;;8.75;;
29358;SDS011;16347;53.232;6.556;2023-05-10T14:28:27;14.30;;;8.45;;
29358;SDS011;16347;53.232;6.556;2023-05-10T14:30:57;14.60;;;9.40;;
29358;SDS011;16347;53.232;6.556;2023-05-10T14:33:25;11.88;;;8.40;;
29358;SDS011;16347;53.232;6.556;2023-05-10T14:35:53;16.40;;;9.43;;
29358;SDS011;16347;53.232;6.556;2023-05-10T14:38:23;14.77;;;9.02;;
29358;SDS011;16347;53.232;6.556;2023-05-10T14:40:50;13.52;;;9.02;;
29358;SDS011;16347;53.232;6.556;2023-05-10T14:43:18;20.98;;;9.63;;
29358;SDS011;16347;53.232;6.556;2023-05-10T14:45:46;15.02;;;9.32;;
29358;SDS011;16347;53.232;6.556;2023-05-10T14:48:16;14.63;;;10.18;;
29358;SDS011;16347;53.232;6.556;2023-05-10T14:50:44;17.13;;;10.55;;
29358;SDS011;16347;53.232;6.556;2023-05-10T14:53:12;15.20;;;10.02;;
29358;SDS011;16347;53.232;6.556;2023-05-10T14:55:40;13.75;;;9.65;;
29358;SDS011;16347;53.232;6.556;2023-05-10T14:58:09;18.55;;;11.05;;
29358;SDS011;16347;53.232;6.556;2023-05-10T15:00:37;22.70;;;11.88;;
29358;SDS011;16347;53.232;6.556;2023-05-10T15:03:05;14.55;;;9.77;;
29358;SDS011;16347;53.232;6.556;2023-05-10T15:05:35;15.68;;;10.20;;